Flight Track Log - Related Links

Times and Time Zones

All times are in EDT time to prevent confusion due to time zone crossing. See the TCF3444 flight status page for this flight to view local times or setup timezone preferences in your user account.

Time Position Orientation Groundspeed Altitude Reporting Facility
EDT Latitude Longitude Course Direction KTS MPH feet Rate Location/Type
Fri 12:39:06 AM 42.0333 -87.9667 95° East 212 244 4,200  Level Chicago TRACON
Fri 12:40:07 AM 42.0833 -87.9167 37° Northeast 298 343 8,000 3,241 Climbing Chicago TRACON
Fri 12:42:00 AM 42.0617 -87.7025 98° East 339 390 13,600 3,000 Climbing Chicago Center
Fri 12:43:01 AM 42.0372 -87.5692 104° East 361 415 16,700 2,678 Climbing Chicago Center
Fri 12:44:00 AM 41.9354 -87.1625 95° East  Level FlightAware Approximate
Fri 12:44:01 AM 42.0211 -87.4281 99° East 378 435 19,000  Level Chicago Center
Fri 12:45:02 AM 42.0031 -87.2783 99° East 399 459 21,500 2,331 Climbing Chicago Center
Fri 12:46:02 AM 41.9839 -87.1231 99° East 417 480 23,700 2,150 Climbing Chicago Center
Fri 12:47:02 AM 41.9644 -86.9628 99° East 433 498 25,800 1,884 Climbing Chicago Center
Fri 12:48:03 AM 41.9431 -86.7967 100° East 448 516 27,500 1,736 Climbing Chicago Center
Fri 12:49:03 AM 41.9214 -86.6072 99° East 464 534 29,300 1,488 Climbing Chicago Center
Fri 12:50:04 AM 41.8981 -86.4294 100° East 481 554 30,500 843 Climbing Chicago Center
Fri 12:51:04 AM 41.8742 -86.2483 100° East 493 567 31,000 250 Climbing Chicago Center
Fri 12:52:04 AM 41.8486 -86.0533 100° East 528 608 31,000  Level Chicago Center
Fri 12:53:05 AM 41.8233 -85.8581 100° East 531 611 31,000  Level Chicago Center
Fri 12:54:05 AM 41.7981 -85.6625 100° East 531 611 31,000  Level Chicago Center
Fri 12:55:06 AM 41.7717 -85.4650 100° East 530 610 31,000  Level Chicago Center
Fri 12:56:06 AM 41.7439 -85.2658 101° East 529 609 31,000  Level Chicago Center
Fri 12:57:06 AM 41.7175 -85.0689 100° East 530 610 31,000  Level Chicago Center
Fri 12:57:38 AM 41.7064 -84.9867 100° East 546 628 31,000  Level Cleveland Center
Fri 12:58:38 AM 41.6783 -84.7900 101° East 541 623 31,000  Level Cleveland Center
Fri 12:59:38 AM 41.6414 -84.5986 104° East 535 616 31,000  Level Cleveland Center
Fri 01:00:38 AM 41.5956 -84.4150 108° East 525 604 31,000  Level Cleveland Center
Fri 01:01:08 AM 41.5681 -84.3069 109° East 531 611 31,000  Level Chicago Center
Fri 01:01:38 AM 41.5439 -84.2122 109° East 525 604 31,000  Level Cleveland Center
Fri 01:02:38 AM 41.4956 -84.0211 109° East 530 610 31,000  Level Cleveland Center
Fri 01:03:38 AM 41.4508 -83.8358 108° East 530 610 31,000  Level Cleveland Center
Fri 01:04:38 AM 41.4019 -83.6506 109° East 530 610 31,000  Level Cleveland Center
Fri 01:05:38 AM 41.3625 -83.4825 107° East 535 616 31,000  Level Cleveland Center
Fri 01:06:38 AM 41.3150 -83.2953 109° East 530 610 31,000  Level Cleveland Center
Fri 01:07:38 AM 41.2633 -83.0886 108° East 535 616 31,000  Level Cleveland Center
Fri 01:08:38 AM 41.2172 -82.9019 108° East 535 616 31,000  Level Cleveland Center
Fri 01:09:38 AM 41.1667 -82.7208 110° East 530 610 31,000 -350 Level Cleveland Center
Fri 01:10:38 AM 41.1197 -82.5347 108° East 530 610 30,300 -800 Descending Cleveland Center
Fri 01:11:38 AM 41.0789 -82.3708 108° East 530 610 29,400 -950 Descending Cleveland Center
Fri 01:12:38 AM 41.0294 -82.1906 110° East 530 610 28,400 -1,150 Descending Cleveland Center
Fri 01:13:38 AM 40.9797 -82.0106 110° East 524 603 27,100 -1,950 Descending Cleveland Center
Fri 01:14:38 AM 40.9358 -81.8364 108° East 512 589 24,500 -2,625 Descending Cleveland Center
Fri 01:15:46 AM 40.8794 -81.6514 112° Southeast 485 558 21,500 -2,578 Descending Cleveland Center
Fri 01:16:46 AM 40.8225 -81.4831 114° Southeast 470 541 19,000 -2,250 Descending Cleveland Center
Fri 01:17:46 AM 40.7756 -81.3344 113° Southeast 448 516 17,000 -2,100 Descending Cleveland Center
Fri 01:18:46 AM 40.7264 -81.1886 114° Southeast 437 503 14,800 -2,218 Descending Cleveland Center
Fri 01:19:45 AM 40.6833 -81.0567 113° Southeast 416 479 12,600 -2,067 Descending Cleveland Center
Fri 01:20:45 AM 40.6461 -80.9333 112° Southeast 402 463 10,700 -1,300 Descending Cleveland Center
Fri 01:21:45 AM 40.6047 -80.8075 113° Southeast 391 450 10,000 -850 Descending Cleveland Center
Fri 01:22:45 AM 40.5717 -80.7033 113° Southeast 350 403 9,000 -1,450 Descending Cleveland Center
Fri 01:23:45 AM 40.5486 -80.5994 106° East 315 362 7,100 -1,750 Descending Cleveland Center
Fri 01:24:45 AM 40.5342 -80.5147 103° East 272 313 5,500 -1,450 Descending Cleveland Center
Fri 01:25:45 AM 40.5131 -80.4356 109° East 239 275 4,200 -1,300 Descending Cleveland Center
Fri 01:26:45 AM 40.5047 -80.3700 99° East 204 235 2,900 -1,241 Descending Cleveland Center
Fri 01:27:12 AM 40.5039 -80.3453 93° East 144 166 2,400 -1,021 Descending FAA TRACON SMA TRACON (SMA)
Fri 01:27:32 AM 40.5036 -80.3294 91° East 140 161 2,100 -732 Descending FAA TRACON SMA TRACON (SMA)
Fri 01:27:53 AM 40.5033 -80.3100 91° East 139 160 1,900 -750 Descending FAA TRACON SMA TRACON (SMA)
Fri 01:28:12 AM 40.5031 -80.2944 91° East 136 157 1,600 -769 Descending FAA TRACON SMA TRACON (SMA)
Fri 01:28:32 AM 40.5028 -80.2789 91° East 136 157 1,400 -450 Descending FAA TRACON SMA TRACON (SMA)
Fri 01:28:52 AM 40.5028 -80.2750 90° East 137 158 1,300 -150 Descending FAA TRACON SMA TRACON (SMA)
Fri 01:29:12 AM 40.5028 -80.2750 180° South 137 158 1,300  Level FAA TRACON SMA TRACON (SMA)

Login

Don't have an account? Register now (free) for customized features, flight alerts, and more!